Aviation Digital Data Service (ADDS)

Output produced by METARs form (2233 UTC 30 March 2017)
found at http://www.aviationweather.gov/adds/metars/
 
SUCA 301750Z 3018/3118 06020KT 9999 SCT020 BKN200 TX25/3118Z TN17/3110Z 
     TEMPO 3020/3108 06020G30KT 
     PROB30 
     TEMPO 3022/3104 8000 -RA BKN015 
     BECMG 3112/3114 03020KT 9999 SCT020 BKN070
       
SUDU 301750Z 3018/3118 05018KT 9999 SCT020 BKN200 TX25/3118Z TN17/3110Z 
     TEMPO 3020/3108 06020G30KT 
     BECMG 3112/3114 03020KT 9999 SCT020 BKN070
       
SUMU 301750Z 3018/3118 06020KT 9999 SCT020 BKN200 TX25/3118Z TN17/3110Z 
     TEMPO 3020/3108 06020G30KT 
     PROB30 
     TEMPO 3022/3104 8000 -RA BKN015 
     BECMG 3112/3114 03020KT 9999 SCT020 BKN070
       
SUAA 301750Z 3018/3118 06020KT 9999 SCT020 BKN200 TX25/3118Z TN17/3110Z 
     TEMPO 3020/3108 06020G30KT 
     PROB30 
     TEMPO 3022/3104 8000 -RA BKN015 
     BECMG 3112/3114 03020KT 9999 SCT020 BKN070
       
SULS 301750Z 3018/3118 06020KT 9999 SCT020 BKN200 TX25/3118Z TN18/3110Z 
     PROB30 
     TEMPO 3018/3100 8000 -RA BKN015 
     TEMPO 3018/3106 06020G35KT
       
SURV 301750Z 3018/3118 09015KT 9999 SCT020 TX29/3118Z TN19/3110Z 3020/3104 06015G25KT 9999 SCT020
       
SUSO 301750Z 3018/3118 09015KT 9999 SCT020 TX29/3118Z TN19/3110Z 3020/3104 06015G25KT 9999 SCT020